Terminal Aerodrome Forecast
Issued by NWS Dallas/Fort Worth, TX

Home | Current Version | Previous Version | Text Only | Print | Product List | Glossary On
Versions: 1 2 3 4 5 6 7 8 9 10 11 12 13 14 15 16 17 18 19 20 21 22 23 24 25 26 27 28 29 30 31 32 33 34 35 36 37 38 39 40 41 42 43 44
000
FTUS44 KFWD 260321 AAA
TAFDFW
TAF AMD
KDFW 260321Z 2603/2706 15010KT P6SM SCT008 BKN250
     FM260600 15006KT 5SM BR SCT008 BKN015
      TEMPO 2606/2610 BKN008 OVC015
     FM261500 17010KT P6SM BKN015
     FM261800 19010KT P6SM BKN035
     FM262100 18012KT P6SM VCTS SCT040CB OVC100
     FM270100 17010KT P6SM SCT050 BKN100=

USA.gov is the U.S. government's official web portal to all federal, state and local government web resources and services.